sensor_id;sensor_type;location;lat;lon;timestamp;P1;durP1;ratioP1;P2;durP2;ratioP2
15474;SDS011;7839;50.462;9.678;2022-12-29T00:02:41;1.90;;;1.47;;
15474;SDS011;7839;50.462;9.678;2022-12-29T00:09:22;1.30;;;1.20;;
15474;SDS011;7839;50.462;9.678;2022-12-29T00:16:02;1.67;;;0.90;;
15474;SDS011;7839;50.462;9.678;2022-12-29T00:22:42;1.10;;;1.00;;
15474;SDS011;7839;50.462;9.678;2022-12-29T00:29:41;1.33;;;0.90;;
15474;SDS011;7839;50.462;9.678;2022-12-29T00:36:40;1.80;;;1.00;;
15474;SDS011;7839;50.462;9.678;2022-12-29T00:43:22;1.43;;;1.00;;
15474;SDS011;7839;50.462;9.678;2022-12-29T00:50:20;1.03;;;0.93;;
15474;SDS011;7839;50.462;9.678;2022-12-29T00:57:02;1.03;;;0.83;;
15474;SDS011;7839;50.462;9.678;2022-12-29T01:03:42;3.27;;;1.17;;
15474;SDS011;7839;50.462;9.678;2022-12-29T01:10:22;1.00;;;0.90;;
15474;SDS011;7839;50.462;9.678;2022-12-29T01:17:03;1.03;;;0.90;;
15474;SDS011;7839;50.462;9.678;2022-12-29T01:23:44;0.83;;;0.80;;
15474;SDS011;7839;50.462;9.678;2022-12-29T01:30:24;1.60;;;0.83;;
15474;SDS011;7839;50.462;9.678;2022-12-29T01:37:04;1.43;;;1.07;;
15474;SDS011;7839;50.462;9.678;2022-12-29T01:43:49;1.23;;;1.00;;
15474;SDS011;7839;50.462;9.678;2022-12-29T01:50:31;1.03;;;0.80;;
15474;SDS011;7839;50.462;9.678;2022-12-29T01:57:13;0.97;;;0.97;;
15474;SDS011;7839;50.462;9.678;2022-12-29T02:03:55;1.60;;;0.90;;
15474;SDS011;7839;50.462;9.678;2022-12-29T02:10:36;0.90;;;0.75;;
15474;SDS011;7839;50.462;9.678;2022-12-29T02:44:47;0.70;;;0.70;;
15474;SDS011;7839;50.462;9.678;2022-12-29T02:51:32;3.23;;;0.77;;
15474;SDS011;7839;50.462;9.678;2022-12-29T02:58:18;0.80;;;0.53;;
15474;SDS011;7839;50.462;9.678;2022-12-29T03:11:41;1.40;;;0.70;;
15474;SDS011;7839;50.462;9.678;2022-12-29T03:19:19;1.10;;;0.77;;
15474;SDS011;7839;50.462;9.678;2022-12-29T03:25:54;0.67;;;0.67;;
15474;SDS011;7839;50.462;9.678;2022-12-29T03:32:39;1.13;;;0.50;;
15474;SDS011;7839;50.462;9.678;2022-12-29T03:39:22;1.20;;;0.80;;
15474;SDS011;7839;50.462;9.678;2022-12-29T03:46:03;0.47;;;0.47;;
15474;SDS011;7839;50.462;9.678;2022-12-29T03:52:43;0.77;;;0.70;;
15474;SDS011;7839;50.462;9.678;2022-12-29T03:59:23;0.53;;;0.50;;
15474;SDS011;7839;50.462;9.678;2022-12-29T04:06:04;0.70;;;0.70;;
15474;SDS011;7839;50.462;9.678;2022-12-29T04:12:44;0.67;;;0.60;;
15474;SDS011;7839;50.462;9.678;2022-12-29T04:19:27;2.17;;;0.60;;
15474;SDS011;7839;50.462;9.678;2022-12-29T04:26:07;1.13;;;0.67;;
15474;SDS011;7839;50.462;9.678;2022-12-29T04:32:48;1.30;;;0.40;;
15474;SDS011;7839;50.462;9.678;2022-12-29T04:39:29;0.60;;;0.60;;
15474;SDS011;7839;50.462;9.678;2022-12-29T04:46:09;0.43;;;0.43;;
15474;SDS011;7839;50.462;9.678;2022-12-29T04:52:49;0.83;;;0.40;;
15474;SDS011;7839;50.462;9.678;2022-12-29T04:59:29;1.23;;;0.43;;
15474;SDS011;7839;50.462;9.678;2022-12-29T05:06:11;1.70;;;0.53;;
15474;SDS011;7839;50.462;9.678;2022-12-29T05:12:51;0.60;;;0.50;;
15474;SDS011;7839;50.462;9.678;2022-12-29T05:19:31;0.37;;;0.33;;
15474;SDS011;7839;50.462;9.678;2022-12-29T05:26:11;1.10;;;0.50;;
15474;SDS011;7839;50.462;9.678;2022-12-29T05:32:52;0.40;;;0.40;;
15474;SDS011;7839;50.462;9.678;2022-12-29T05:39:32;1.57;;;0.70;;
15474;SDS011;7839;50.462;9.678;2022-12-29T05:46:12;0.60;;;0.60;;
15474;SDS011;7839;50.462;9.678;2022-12-29T05:52:52;1.17;;;0.60;;
15474;SDS011;7839;50.462;9.678;2022-12-29T05:59:33;0.80;;;0.80;;
15474;SDS011;7839;50.462;9.678;2022-12-29T06:06:13;0.50;;;0.50;;
15474;SDS011;7839;50.462;9.678;2022-12-29T06:12:53;0.50;;;0.50;;
15474;SDS011;7839;50.462;9.678;2022-12-29T06:19:35;0.70;;;0.70;;
15474;SDS011;7839;50.462;9.678;2022-12-29T06:26:15;2.10;;;0.80;;
15474;SDS011;7839;50.462;9.678;2022-12-29T06:32:57;1.23;;;0.80;;
15474;SDS011;7839;50.462;9.678;2022-12-29T06:39:37;1.67;;;0.80;;
15474;SDS011;7839;50.462;9.678;2022-12-29T06:46:17;1.83;;;0.83;;
15474;SDS011;7839;50.462;9.678;2022-12-29T06:52:59;0.80;;;0.60;;
15474;SDS011;7839;50.462;9.678;2022-12-29T06:59:39;0.83;;;0.83;;
15474;SDS011;7839;50.462;9.678;2022-12-29T07:06:19;1.20;;;0.87;;
15474;SDS011;7839;50.462;9.678;2022-12-29T07:13:00;1.07;;;0.90;;
15474;SDS011;7839;50.462;9.678;2022-12-29T07:19:40;0.83;;;0.83;;
15474;SDS011;7839;50.462;9.678;2022-12-29T07:26:21;1.37;;;0.60;;
15474;SDS011;7839;50.462;9.678;2022-12-29T07:33:01;0.70;;;0.70;;
15474;SDS011;7839;50.462;9.678;2022-12-29T07:39:41;0.60;;;0.60;;
15474;SDS011;7839;50.462;9.678;2022-12-29T07:46:22;0.93;;;0.70;;
15474;SDS011;7839;50.462;9.678;2022-12-29T07:53:02;0.83;;;0.77;;
15474;SDS011;7839;50.462;9.678;2022-12-29T07:59:42;1.37;;;1.00;;
15474;SDS011;7839;50.462;9.678;2022-12-29T08:06:23;0.97;;;0.70;;
15474;SDS011;7839;50.462;9.678;2022-12-29T08:13:03;0.67;;;0.57;;
15474;SDS011;7839;50.462;9.678;2022-12-29T08:19:43;0.70;;;0.70;;
15474;SDS011;7839;50.462;9.678;2022-12-29T08:26:25;0.83;;;0.83;;
15474;SDS011;7839;50.462;9.678;2022-12-29T08:33:05;0.90;;;0.67;;
15474;SDS011;7839;50.462;9.678;2022-12-29T08:39:45;1.03;;;0.70;;
15474;SDS011;7839;50.462;9.678;2022-12-29T08:46:25;1.07;;;0.93;;
15474;SDS011;7839;50.462;9.678;2022-12-29T08:53:06;1.10;;;1.07;;
15474;SDS011;7839;50.462;9.678;2022-12-29T08:59:46;1.30;;;1.20;;
15474;SDS011;7839;50.462;9.678;2022-12-29T09:06:29;1.30;;;1.20;;
15474;SDS011;7839;50.462;9.678;2022-12-29T09:13:09;1.37;;;1.00;;
15474;SDS011;7839;50.462;9.678;2022-12-29T09:19:50;1.13;;;0.90;;
15474;SDS011;7839;50.462;9.678;2022-12-29T09:26:30;2.07;;;1.67;;
15474;SDS011;7839;50.462;9.678;2022-12-29T09:33:11;2.83;;;1.97;;
15474;SDS011;7839;50.462;9.678;2022-12-29T09:39:51;2.27;;;1.80;;
15474;SDS011;7839;50.462;9.678;2022-12-29T09:46:35;2.67;;;1.63;;
15474;SDS011;7839;50.462;9.678;2022-12-29T09:53:19;1.43;;;1.33;;
15474;SDS011;7839;50.462;9.678;2022-12-29T10:00:23;3.30;;;1.40;;
15474;SDS011;7839;50.462;9.678;2022-12-29T10:07:22;2.93;;;1.30;;
15474;SDS011;7839;50.462;9.678;2022-12-29T10:20:48;2.23;;;1.57;;
15474;SDS011;7839;50.462;9.678;2022-12-29T10:27:30;2.00;;;1.50;;
15474;SDS011;7839;50.462;9.678;2022-12-29T10:34:25;2.13;;;1.20;;
15474;SDS011;7839;50.462;9.678;2022-12-29T10:47:55;0.90;;;0.90;;
15474;SDS011;7839;50.462;9.678;2022-12-29T11:01:21;1.50;;;1.40;;
15474;SDS011;7839;50.462;9.678;2022-12-29T11:08:03;0.97;;;0.90;;
15474;SDS011;7839;50.462;9.678;2022-12-29T11:14:45;0.90;;;0.90;;
15474;SDS011;7839;50.462;9.678;2022-12-29T11:21:47;0.80;;;0.80;;
15474;SDS011;7839;50.462;9.678;2022-12-29T11:28:26;1.87;;;0.80;;
15474;SDS011;7839;50.462;9.678;2022-12-29T11:35:17;0.93;;;0.60;;
15474;SDS011;7839;50.462;9.678;2022-12-29T11:42:13;1.00;;;0.80;;
15474;SDS011;7839;50.462;9.678;2022-12-29T11:48:54;1.07;;;0.70;;
15474;SDS011;7839;50.462;9.678;2022-12-29T11:55:38;1.20;;;0.80;;
15474;SDS011;7839;50.462;9.678;2022-12-29T12:16:02;0.87;;;0.40;;
15474;SDS011;7839;50.462;9.678;2022-12-29T12:22:46;1.10;;;0.60;;
15474;SDS011;7839;50.462;9.678;2022-12-29T12:29:33;0.70;;;0.70;;
15474;SDS011;7839;50.462;9.678;2022-12-29T12:36:22;1.70;;;0.53;;
15474;SDS011;7839;50.462;9.678;2022-12-29T12:57:35;0.67;;;0.63;;
15474;SDS011;7839;50.462;9.678;2022-12-29T13:23:46;1.43;;;0.80;;
15474;SDS011;7839;50.462;9.678;2022-12-29T13:30:34;0.50;;;0.50;;
15474;SDS011;7839;50.462;9.678;2022-12-29T13:37:17;1.63;;;0.87;;
15474;SDS011;7839;50.462;9.678;2022-12-29T13:44:01;0.73;;;0.73;;
15474;SDS011;7839;50.462;9.678;2022-12-29T13:50:42;0.90;;;0.87;;
15474;SDS011;7839;50.462;9.678;2022-12-29T14:04:12;0.67;;;0.67;;
15474;SDS011;7839;50.462;9.678;2022-12-29T14:10:53;0.83;;;0.50;;
15474;SDS011;7839;50.462;9.678;2022-12-29T14:17:33;0.80;;;0.80;;
15474;SDS011;7839;50.462;9.678;2022-12-29T14:24:27;0.50;;;0.50;;
15474;SDS011;7839;50.462;9.678;2022-12-29T14:38:05;0.77;;;0.57;;
15474;SDS011;7839;50.462;9.678;2022-12-29T14:51:30;2.67;;;0.80;;
15474;SDS011;7839;50.462;9.678;2022-12-29T14:58:15;1.20;;;0.73;;
15474;SDS011;7839;50.462;9.678;2022-12-29T15:04:58;1.23;;;0.80;;
15474;SDS011;7839;50.462;9.678;2022-12-29T15:18:22;1.10;;;0.87;;
15474;SDS011;7839;50.462;9.678;2022-12-29T15:25:03;1.60;;;1.00;;
15474;SDS011;7839;50.462;9.678;2022-12-29T15:31:46;4.47;;;1.50;;
15474;SDS011;7839;50.462;9.678;2022-12-29T15:38:29;1.90;;;1.33;;
15474;SDS011;7839;50.462;9.678;2022-12-29T15:45:10;1.30;;;1.20;;
15474;SDS011;7839;50.462;9.678;2022-12-29T15:51:51;1.90;;;1.20;;
15474;SDS011;7839;50.462;9.678;2022-12-29T15:58:32;3.63;;;1.63;;
15474;SDS011;7839;50.462;9.678;2022-12-29T16:05:18;2.60;;;1.87;;
15474;SDS011;7839;50.462;9.678;2022-12-29T16:12:03;1.87;;;1.30;;
15474;SDS011;7839;50.462;9.678;2022-12-29T16:18:44;2.23;;;1.70;;
15474;SDS011;7839;50.462;9.678;2022-12-29T16:25:28;1.60;;;1.40;;
15474;SDS011;7839;50.462;9.678;2022-12-29T16:39:20;3.17;;;1.80;;
15474;SDS011;7839;50.462;9.678;2022-12-29T16:52:59;2.33;;;1.70;;
15474;SDS011;7839;50.462;9.678;2022-12-29T16:59:40;1.50;;;1.17;;
15474;SDS011;7839;50.462;9.678;2022-12-29T17:06:22;2.27;;;1.40;;
15474;SDS011;7839;50.462;9.678;2022-12-29T17:13:02;1.93;;;1.43;;
15474;SDS011;7839;50.462;9.678;2022-12-29T17:19:50;1.80;;;1.53;;
15474;SDS011;7839;50.462;9.678;2022-12-29T17:26:31;1.23;;;1.13;;
15474;SDS011;7839;50.462;9.678;2022-12-29T17:33:13;1.57;;;1.47;;
15474;SDS011;7839;50.462;9.678;2022-12-29T17:39:54;3.60;;;1.80;;
15474;SDS011;7839;50.462;9.678;2022-12-29T17:46:34;1.50;;;1.33;;
15474;SDS011;7839;50.462;9.678;2022-12-29T17:53:16;2.70;;;1.40;;
15474;SDS011;7839;50.462;9.678;2022-12-29T17:59:58;2.60;;;1.30;;
15474;SDS011;7839;50.462;9.678;2022-12-29T18:06:39;1.50;;;1.33;;
15474;SDS011;7839;50.462;9.678;2022-12-29T18:13:20;2.20;;;1.57;;
15474;SDS011;7839;50.462;9.678;2022-12-29T18:20:01;1.50;;;1.33;;
15474;SDS011;7839;50.462;9.678;2022-12-29T18:26:41;2.00;;;1.60;;
15474;SDS011;7839;50.462;9.678;2022-12-29T18:33:23;2.07;;;1.83;;
15474;SDS011;7839;50.462;9.678;2022-12-29T18:40:03;3.47;;;2.20;;
15474;SDS011;7839;50.462;9.678;2022-12-29T18:46:43;2.87;;;1.77;;
15474;SDS011;7839;50.462;9.678;2022-12-29T18:53:25;4.47;;;1.93;;
15474;SDS011;7839;50.462;9.678;2022-12-29T19:00:05;5.77;;;2.60;;
15474;SDS011;7839;50.462;9.678;2022-12-29T19:06:46;3.80;;;2.40;;
15474;SDS011;7839;50.462;9.678;2022-12-29T19:13:26;4.13;;;2.37;;
15474;SDS011;7839;50.462;9.678;2022-12-29T19:20:09;5.43;;;2.50;;
15474;SDS011;7839;50.462;9.678;2022-12-29T19:26:59;3.93;;;2.13;;
15474;SDS011;7839;50.462;9.678;2022-12-29T19:33:40;2.80;;;1.90;;
15474;SDS011;7839;50.462;9.678;2022-12-29T19:40:21;5.63;;;2.40;;
15474;SDS011;7839;50.462;9.678;2022-12-29T19:47:02;3.70;;;1.77;;
15474;SDS011;7839;50.462;9.678;2022-12-29T19:53:44;3.07;;;1.53;;
15474;SDS011;7839;50.462;9.678;2022-12-29T20:00:24;3.40;;;1.40;;
15474;SDS011;7839;50.462;9.678;2022-12-29T20:07:04;2.57;;;1.57;;
15474;SDS011;7839;50.462;9.678;2022-12-29T20:13:45;2.80;;;1.63;;
15474;SDS011;7839;50.462;9.678;2022-12-29T20:20:26;1.97;;;1.43;;
15474;SDS011;7839;50.462;9.678;2022-12-29T20:27:08;2.73;;;1.57;;
15474;SDS011;7839;50.462;9.678;2022-12-29T20:33:48;2.90;;;1.63;;
15474;SDS011;7839;50.462;9.678;2022-12-29T20:40:29;2.33;;;1.70;;
15474;SDS011;7839;50.462;9.678;2022-12-29T20:47:09;3.77;;;1.60;;
15474;SDS011;7839;50.462;9.678;2022-12-29T20:53:49;4.03;;;1.73;;
15474;SDS011;7839;50.462;9.678;2022-12-29T21:00:30;3.53;;;1.50;;
15474;SDS011;7839;50.462;9.678;2022-12-29T21:07:11;3.80;;;1.67;;
15474;SDS011;7839;50.462;9.678;2022-12-29T21:13:52;3.77;;;1.50;;
15474;SDS011;7839;50.462;9.678;2022-12-29T21:20:32;3.73;;;1.87;;
15474;SDS011;7839;50.462;9.678;2022-12-29T21:27:13;4.53;;;1.60;;
15474;SDS011;7839;50.462;9.678;2022-12-29T21:33:54;3.93;;;1.70;;
15474;SDS011;7839;50.462;9.678;2022-12-29T21:40:35;2.93;;;1.57;;
15474;SDS011;7839;50.462;9.678;2022-12-29T21:47:16;3.70;;;1.80;;
15474;SDS011;7839;50.462;9.678;2022-12-29T21:53:59;3.17;;;1.53;;
15474;SDS011;7839;50.462;9.678;2022-12-29T22:00:59;2.83;;;1.40;;
15474;SDS011;7839;50.462;9.678;2022-12-29T22:07:58;2.70;;;1.63;;
15474;SDS011;7839;50.462;9.678;2022-12-29T22:14:57;3.50;;;1.47;;
15474;SDS011;7839;50.462;9.678;2022-12-29T22:21:37;3.40;;;1.50;;
15474;SDS011;7839;50.462;9.678;2022-12-29T22:28:19;3.30;;;1.53;;
15474;SDS011;7839;50.462;9.678;2022-12-29T22:34:59;3.30;;;1.20;;
15474;SDS011;7839;50.462;9.678;2022-12-29T22:41:39;2.97;;;1.53;;
15474;SDS011;7839;50.462;9.678;2022-12-29T22:48:20;2.73;;;1.23;;
15474;SDS011;7839;50.462;9.678;2022-12-29T22:55:00;3.10;;;1.50;;
15474;SDS011;7839;50.462;9.678;2022-12-29T23:01:40;2.00;;;1.40;;
15474;SDS011;7839;50.462;9.678;2022-12-29T23:08:20;3.07;;;1.30;;
15474;SDS011;7839;50.462;9.678;2022-12-29T23:15:01;2.97;;;1.20;;
15474;SDS011;7839;50.462;9.678;2022-12-29T23:21:42;4.97;;;1.67;;
15474;SDS011;7839;50.462;9.678;2022-12-29T23:28:22;1.90;;;1.10;;
15474;SDS011;7839;50.462;9.678;2022-12-29T23:35:02;3.60;;;1.50;;
15474;SDS011;7839;50.462;9.678;2022-12-29T23:41:43;3.50;;;1.27;;
15474;SDS011;7839;50.462;9.678;2022-12-29T23:48:23;3.10;;;1.40;;
15474;SDS011;7839;50.462;9.678;2022-12-29T23:55:03;3.73;;;1.43;;
